Airfield :
LOGIN :

Register | Disclaimer

   EN    FR    IT 

 










Legend :    VFR   Marginal VFR   IFR   Intensive IFR   Very Intensive IFR
Visi :
Ceiling :
>= 8 km
>= 3000ft
5 to 8 km
1000 to 3000 ft
1500m to 5 km
500 to 1000 ft
800 to 1500m
200 to 500 ft
< 800m
< 200 ft
Symbols :   Thunderstorms  Fog  Heavy snow  Heavy precipitations  Wind > 20 kt
SIGMETs :     Misc.  Thunderstorms  Icing  Turbulence  Mountain Waves  Volcanic Ashes






- Airport Elevation : 277 ft
- IATA code : JER


EGJJ - Jersey

CURRENT METAR :
  • 070650Z 35010G20KT 290V030 9999 FEW008 17/15 Q1028

EXPIRED METARs :
  • 070620Z 34009KT 290V050 9999 FEW010 17/15 Q1028
  • 070550Z 32007KT 280V040 9999 FEW009 16/15 Q1028
  • 070520Z 33007KT 270V010 9999 FEW015 16/15 Q1028
  • 070450Z 31005KT 280V010 9999 FEW015 15/15 Q1027
  • 070350Z AUTO 33007KT 280V010 9999 NCD 15/14 Q1027

TAF TAF EGJJ
Valid from the 07 at 06:00 until the 07 at 15:00 UTC


070457Z 0706/0715 34010KT CAVOK
BECMG 0707/0709 SCT008 BKN030
PROB30
TEMPO 0708/0710 BKN008
ATIS : +44 1534 498 073



MET'MAP, your aeronautical weather chart ! - Copyright ORBIFLY December 2007 - Disclaimer

ORBIFLY MET'MAP TEAM :

Programming & Development : Alexandra Zaïnal
Original concept : Baudouin d'Aumeries
Technical & hardware support : Manuel Goepfert
Assistance : Marc-Olivier Méhu




SOURCES & CREDITS :

   NOAA